Home > Products > Valid Products > MTR

000
SAUS46 KSGX 200653
MTRCZZ
METAR KCZZ 200652Z AUTO 07005KT 04/02 A3015 RMK AO1 SLP197 T00390022





000
SAUS46 KSGX 200553
MTRCZZ
METAR KCZZ 200552Z AUTO 04004KT 04/03 A3014 RMK AO1 SLP197 T00390028
10133 20033 56001





000
SAUS46 KSGX 200453
MTRCZZ
METAR KCZZ 200452Z AUTO 04004KT 04/02 A3014 RMK AO1 SLP198 T00440022





000
SAUS46 KSGX 200353
MTRCZZ
METAR KCZZ 200352Z AUTO 00000KT 07/04 A3013 RMK AO1 SLP197 T00720039





000
SAUS46 KSGX 200353
MTRCZZ
METAR KCZZ 200352Z AUTO 00000KT 07/04 A3013 RMK AO1 SLP197 T00720039





000
SAUS46 KSGX 200253
MTRCZZ
METAR KCZZ 200252Z AUTO 06003KT 08/04 A3014 RMK AO1 SLP203 T00780044
53009





000
SAUS46 KSGX 200153
MTRCZZ
METAR KCZZ 200152Z AUTO 04003KT 09/05 A3012 RMK AO1 SLP195 T00940050





000
SAUS46 KSGX 200153
MTRCZZ
METAR KCZZ 200152Z AUTO 04003KT 09/05 A3012 RMK AO1 SLP195 T00940050





000
SAUS46 KSGX 200053
MTRCZZ
METAR KCZZ 200052Z AUTO 00000KT 12/04 A3012 RMK AO1 SLP190 T01220044





000
SAUS46 KSGX 192353
MTRCZZ
METAR KCZZ 192352Z AUTO 28005KT 13/04 A3011 RMK AO1 SLP189 T01330044
10172 20128 56000





000
SAUS46 KSGX 192253
MTRCZZ
METAR KCZZ 192252Z AUTO 25011KT 15/05 A3012 RMK AO1 SLP187 T01500050





000
SAUS46 KSGX 192153
MTRCZZ
METAR KCZZ 192152Z AUTO 23008KT 16/03 A3011 RMK AO1 SLP185 T01610033





000
SAUS46 KSGX 192053
MTRCZZ
METAR KCZZ 192052Z AUTO 00000KT 16/M01 A3012 RMK AO1 SLP187
T01611006 56021





000
SAUS46 KSGX 191953
MTRCZZ
METAR KCZZ 191952Z AUTO 06003KT 15/01 A3013 RMK AO1 SLP193 T01500011





000
SAUS46 KSGX 191953
MTRCZZ
METAR KCZZ 191952Z AUTO 06003KT 15/01 A3013 RMK AO1 SLP193 T01500011





000
SAUS46 KSGX 191853
MTRCZZ
METAR KCZZ 191852Z AUTO 09008KT 14/01 A3017 RMK AO1 SLP205 T01440011





000
SAUS46 KSGX 191753
MTRCZZ
METAR KCZZ 191752Z AUTO 10010KT 13/03 A3018 RMK AO1 SLP212 T01280028
10128 20006 56000





000
SAUS46 KSGX 191653
MTRCZZ
METAR KCZZ 191652Z AUTO 07010KT 11/03 A3018 RMK AO1 SLP213 T01060033





000
SAUS46 KSGX 191553
MTRCZZ
METAR KCZZ 191552Z AUTO 00000KT 04/02 A3018 RMK AO1 SLP218 T00390022





000
SAUS46 KSGX 191453
MTRCZZ
METAR KCZZ 191452Z AUTO 04004KT 02/00 A3019 RMK AO1 SLP218 T00170000
53009





000
SAUS46 KSGX 191353
MTRCZZ
METAR KCZZ 191352Z AUTO 36003KT 01/M01 A3018 RMK AO1 SLP215
T00061011





000
SAUS46 KSGX 191253
MTRCZZ
METAR KCZZ 191252Z AUTO 03004KT 03/02 A3015 RMK AO1 SLP203 T00330017





000
SAUS46 KSGX 191153
MTRCZZ
METAR KCZZ 191152Z AUTO 05003KT 01/M01 A3016 RMK AO1 SLP206
T00061006 10039 20006 58002





000
SAUS46 KSGX 191053
MTRCZZ
METAR KCZZ 191052Z AUTO 00000KT 02/01 A3016 RMK AO1 SLP205 T00220011





000
SAUS46 KSGX 190953
MTRCZZ
METAR KCZZ 190952Z AUTO 07003KT 02/01 A3017 RMK AO1 SLP209 T00170006





000
SAUS46 KSGX 190953
MTRCZZ
METAR KCZZ 190952Z AUTO 07003KT 02/01 A3017 RMK AO1 SLP209 T00170006





000
SAUS46 KSGX 190853
MTRCZZ
METAR KCZZ 190852Z AUTO 00000KT 02/01 A3016 RMK AO1 SLP207 T00170006
58006





000
SAUS46 KSGX 190753
MTRCZZ
METAR KCZZ 190752Z AUTO 03003KT 01/01 A3017 RMK AO1 SLP211 T00110006
401220011





000
SAUS46 KSGX 190653
MTRCZZ
METAR KCZZ 190652Z AUTO 05004KT 03/02 A3018 RMK AO1 SLP213 T00280017





000
SAUS46 KSGX 190553
MTRCZZ
METAR KCZZ 190552Z AUTO 05004KT 04/02 A3018 RMK AO1 SLP214 T00390022
10117 20033 51007





000
SAUS46 KSGX 190453
MTRCZZ
METAR KCZZ 190452Z AUTO 07005KT 04/03 A3018 RMK AO1 SLP213 T00390028





000
SAUS46 KSGX 190353
MTRCZZ
METAR KCZZ 190352Z AUTO 07005KT 05/04 A3017 RMK AO1 SLP213 T00500039





000
SAUS46 KSGX 190353
MTRCZZ
METAR KCZZ 190352Z AUTO 07005KT 05/04 A3017 RMK AO1 SLP213 T00500039





000
SAUS46 KSGX 190253
MTRCZZ
METAR KCZZ 190252Z AUTO 09005KT 08/06 A3016 RMK AO1 SLP207 T00780056
53017





000
SAUS46 KSGX 190153
MTRCZZ
METAR KCZZ 190152Z AUTO 00000KT 08/06 A3014 RMK AO1 SLP200 T00830056





000
SAUS46 KSGX 190153
MTRCZZ
METAR KCZZ 190152Z AUTO 00000KT 08/06 A3014 RMK AO1 SLP200 T00830056





000
SAUS46 KSGX 190053
MTRCZZ
METAR KCZZ 190052Z AUTO 26004KT 10/06 A3012 RMK AO1 SLP193 T01000061





000
SAUS46 KSGX 182353
MTRCZZ
METAR KCZZ 182352Z AUTO 25007KT 11/06 A3011 RMK AO1 SLP187 T01110056
10122 20100 53001





000
SAUS46 KSGX 182253
MTRCZZ
METAR KCZZ 182252Z AUTO 28006KT 12/05 A3010 RMK AO1 SLP184 T01170050





000
SAUS46 KSGX 182153
MTRCZZ
METAR KCZZ 182152Z AUTO 26009KT 12/06 A3010 RMK AO1 SLP181 T01220056





000
SAUS46 KSGX 182053
MTRCZZ
METAR KCZZ 182052Z AUTO 28010KT 12/05 A3010 RMK AO1 SLP185 T01170050
58016





000
SAUS46 KSGX 181953
MTRCZZ
METAR KCZZ 181952Z AUTO 28009KT 11/06 A3012 RMK AO1 SLP194 T01110056





000
SAUS46 KSGX 181853
MTRCZZ
METAR KCZZ 181852Z AUTO 29007KT 11/06 A3015 RMK AO1 SLP203 T01060056





000
SAUS46 KSGX 181753
MTRCZZ
METAR KCZZ 181752Z AUTO VRB05KT 10/06 A3015 RMK AO1 SLP202 T01000056
10100 20028 51009





000
SAUS46 KSGX 181653
MTRCZZ
METAR KCZZ 181652Z AUTO 00000KT 08/06 A3015 RMK AO1 SLP203 T00780061





000
SAUS46 KSGX 181553
MTRCZZ
METAR KCZZ 181552Z AUTO 00000KT 05/04 A3014 RMK AO1 SLP199 T00500039





000
SAUS46 KSGX 181453
MTRCZZ
METAR KCZZ 181452Z AUTO 00000KT 05/04 A3012 RMK AO1 SLP193 T00500039
53011





000
SAUS46 KSGX 181353
MTRCZZ
METAR KCZZ 181352Z AUTO 09004KT 04/03 A3011 RMK AO1 SLP189 T00440033





000
SAUS46 KSGX 181353
MTRCZZ
METAR KCZZ 181352Z AUTO 09004KT 04/03 A3011 RMK AO1 SLP189 T00440033





000
SAUS46 KSGX 181253
MTRCZZ
METAR KCZZ 181252Z AUTO 07004KT 03/02 A3010 RMK AO1 SLP185 T00280022





000
SAUS46 KSGX 181253
MTRCZZ
METAR KCZZ 181252Z AUTO 07004KT 03/02 A3010 RMK AO1 SLP185 T00280022





000
SAUS46 KSGX 181153
MTRCZZ
METAR KCZZ 181152Z AUTO 00000KT 03/02 A3009 RMK AO1 SLP181 70038
T00280022 10044 20017 58001





000
SAUS46 KSGX 181053
MTRCZZ
METAR KCZZ 181052Z AUTO 00000KT 03/02 A3009 RMK AO1 SLP181 T00330017





000
SAUS46 KSGX 181053
MTRCZZ
METAR KCZZ 181052Z AUTO 00000KT 03/02 A3009 RMK AO1 SLP181 T00330017





000
SAUS46 KSGX 180953
MTRCZZ
METAR KCZZ 180952Z AUTO 00000KT 04/02 A3009 RMK AO1 SLP180 T00390022





000
SAUS46 KSGX 180853
MTRCZZ
METAR KCZZ 180852Z AUTO 00000KT 02/02 A3009 RMK AO1 SLP181 T00220017
58001





000
SAUS46 KSGX 180853
MTRCZZ
METAR KCZZ 180852Z AUTO 00000KT 02/02 A3009 RMK AO1 SLP181 T00220017
58001





000
SAUS46 KSGX 180753
MTRCZZ
METAR KCZZ 180752Z AUTO 06005KT 02/01 A3010 RMK AO1 SLP185 T00220011
401170017





000
SAUS46 KSGX 180753
MTRCZZ
METAR KCZZ 180752Z AUTO 06005KT 02/01 A3010 RMK AO1 SLP185 T00220011
401170017





000
SAUS46 KSGX 180653
MTRCZZ
METAR KCZZ 180652Z AUTO 00000KT 04/03 A3010 RMK AO1 SLP185 T00390028





000
SAUS46 KSGX 180554
MTRCZZ
METAR KCZZ 180552Z AUTO 05004KT 04/03 A3009 RMK AO1 SLP181 T00390028
10106 20039 53001





000
SAUS46 KSGX 180453
MTRCZZ
METAR KCZZ 180452Z AUTO 03003KT 05/03 A3009 RMK AO1 SLP181 T00500033





000
SAUS46 KSGX 180353
MTRCZZ
METAR KCZZ 180352Z AUTO 00000KT 07/04 A3008 RMK AO1 SLP178 T00670044





000
SAUS46 KSGX 180353
MTRCZZ
METAR KCZZ 180352Z AUTO 00000KT 07/04 A3008 RMK AO1 SLP178 T00670044





000
SAUS46 KSGX 180253
MTRCZZ
METAR KCZZ 180252Z AUTO 25005KT 08/04 A3009 RMK AO1 SLP178 T00830044
53013





000
SAUS46 KSGX 180153
MTRCZZ
METAR KCZZ 180152Z AUTO 25007KT 08/04 A3007 RMK AO1 SLP173 T00830044





000
SAUS46 KSGX 180153
MTRCZZ
METAR KCZZ 180152Z AUTO 25007KT 08/04 A3007 RMK AO1 SLP173 T00830044





000
SAUS46 KSGX 180053
MTRCZZ
METAR KCZZ 180052Z AUTO 26006KT 09/04 A3005 RMK AO1 SLP165 T00890039





000
SAUS46 KSGX 172353
MTRCZZ
METAR KCZZ 172352Z AUTO 25013KT 10/04 A3004 RMK AO1 SLP162 T01000044
10117 20100 53010





000
SAUS46 KSGX 172253
MTRCZZ
METAR KCZZ 172252Z AUTO 25012G21KT 11/05 A3003 RMK AO1 SLP156
T01110050





000
SAUS46 KSGX 172153
MTRCZZ
METAR KCZZ 172152Z AUTO 23015G20KT 11/06 A3001 RMK AO1 SLP150
T01110056





000
SAUS46 KSGX 172153
MTRCZZ
METAR KCZZ 172152Z AUTO 23015G20KT 11/06 A3001 RMK AO1 SLP150
T01110056





000
SAUS46 KSGX 172054
MTRCZZ
METAR KCZZ 172052Z AUTO 25014G18KT 12/06 A3001 RMK AO1 SLP149
T01170061 58009





000
SAUS46 KSGX 171953
MTRCZZ
METAR KCZZ 171952Z AUTO 25011KT 11/06 A3003 RMK AO1 SLP157 T01060056





000
SAUS46 KSGX 171853
MTRCZZ
METAR KCZZ 171852Z AUTO 23008KT 10/07 A3005 RMK AO1 SLP163 T01000067





000
SAUS46 KSGX 171754
MTRCZZ
METAR KCZZ 171752Z AUTO 22011KT 10/08 A3004 RMK AO1 SLP161 60038
T01000083 10100 20083 51018





000
SAUS46 KSGX 171653
MTRCZZ
METAR KCZZ 171652Z AUTO 21008KT 09/08 A3003 RMK AO1 SLP157 P0002
T00890078





000
SAUS46 KSGX 171553
MTRCZZ
METAR KCZZ 171552Z AUTO 26003KT 08/07 A3001 RMK AO1 SLP150 P0015
T00830072





000
SAUS46 KSGX 171553
MTRCZZ
METAR KCZZ 171552Z AUTO 26003KT 08/07 A3001 RMK AO1 SLP150 P0015
T00830072





000
SAUS46 KSGX 171453
MTRCZZ
METAR KCZZ 171452Z AUTO 24004KT 08/07 A2999 RMK AO1 SLP142 P0017
60021 T00830072 53009





000
SAUS46 KSGX 171353
MTRCZZ
METAR KCZZ 171352Z AUTO 21006KT 08/07 A2996 RMK AO1 SLP133 P0004
T00830072





000
SAUS46 KSGX 171253
MTRCZZ
METAR KCZZ 171252Z AUTO 23006KT 09/08 A2996 RMK AO1 SLP135 T00890078





000
SAUS46 KSGX 171153
MTRCZZ
METAR KCZZ 171152Z AUTO 24010KT 08/07 A2996 RMK AO1 SLP132 P0002
60005 70053 T00830072 10094 20072 58008





000
SAUS46 KSGX 171053
MTRCZZ
METAR KCZZ 171052Z AUTO 23008KT 09/08 A2997 RMK AO1 SLP134 P0001
T00890078





000
SAUS46 KSGX 170953
MTRCZZ
METAR KCZZ 170952Z AUTO 24007KT 08/07 A2997 RMK AO1 SLP137 P0002
T00830072





000
SAUS46 KSGX 170953
MTRCZZ
METAR KCZZ 170952Z AUTO 24007KT 08/07 A2997 RMK AO1 SLP137 P0002
T00830072





000
SAUS46 KSGX 170853
MTRCZZ
METAR KCZZ 170852Z AUTO 00000KT 08/07 A2998 RMK AO1 SLP141 T00780067
58005





000
SAUS46 KSGX 170853
MTRCZZ
METAR KCZZ 170852Z AUTO 00000KT 08/07 A2998 RMK AO1 SLP141 T00780067
58005





000
SAUS46 KSGX 170753
MTRCZZ
METAR KCZZ 170752Z AUTO 24004KT 08/07 A3000 RMK AO1 SLP146 T00780067
401110011





000
SAUS46 KSGX 170753
MTRCZZ
METAR KCZZ 170752Z AUTO 24004KT 08/07 A3000 RMK AO1 SLP146 T00780067
401110011





    US Dept of Commerce
    National Oceanic and Atmospheric Administration
    National Weather Service
    1325 East West Highway
    Silver Spring, MD 20910
    Page Author: NWS Internet Services Team
Disclaimer
Information Quality
Credits
Glossary
Privacy Policy
Freedom of Information Act (FOIA)
About Us
Career Opportunities